sensor_id;sensor_type;location;lat;lon;timestamp;P1;durP1;ratioP1;P2;durP2;ratioP2
4636;SDS011;2331;48.806;9.140;2023-07-31T00:01:39;3.23;;;1.67;;
4636;SDS011;2331;48.806;9.140;2023-07-31T00:04:05;4.73;;;1.47;;
4636;SDS011;2331;48.806;9.140;2023-07-31T00:06:33;4.37;;;1.70;;
4636;SDS011;2331;48.806;9.140;2023-07-31T00:09:00;5.00;;;1.60;;
4636;SDS011;2331;48.806;9.140;2023-07-31T00:11:27;5.20;;;1.65;;
4636;SDS011;2331;48.806;9.140;2023-07-31T00:13:54;5.95;;;1.60;;
4636;SDS011;2331;48.806;9.140;2023-07-31T00:16:20;5.20;;;1.60;;
4636;SDS011;2331;48.806;9.140;2023-07-31T00:18:47;2.60;;;1.50;;
4636;SDS011;2331;48.806;9.140;2023-07-31T00:21:14;2.80;;;1.40;;
4636;SDS011;2331;48.806;9.140;2023-07-31T00:23:42;5.18;;;1.48;;
4636;SDS011;2331;48.806;9.140;2023-07-31T00:26:08;2.50;;;1.60;;
4636;SDS011;2331;48.806;9.140;2023-07-31T00:28:35;7.10;;;1.80;;
4636;SDS011;2331;48.806;9.140;2023-07-31T00:31:02;3.57;;;1.37;;
4636;SDS011;2331;48.806;9.140;2023-07-31T00:33:29;3.93;;;1.53;;
4636;SDS011;2331;48.806;9.140;2023-07-31T00:35:57;5.37;;;2.27;;
4636;SDS011;2331;48.806;9.140;2023-07-31T00:38:24;3.40;;;1.50;;
4636;SDS011;2331;48.806;9.140;2023-07-31T00:40:52;4.93;;;1.47;;
4636;SDS011;2331;48.806;9.140;2023-07-31T00:43:19;3.63;;;1.40;;
4636;SDS011;2331;48.806;9.140;2023-07-31T00:45:45;4.05;;;1.80;;
4636;SDS011;2331;48.806;9.140;2023-07-31T00:48:12;5.38;;;1.85;;
4636;SDS011;2331;48.806;9.140;2023-07-31T00:50:39;5.45;;;1.48;;
4636;SDS011;2331;48.806;9.140;2023-07-31T00:53:06;4.95;;;1.88;;
4636;SDS011;2331;48.806;9.140;2023-07-31T00:55:32;4.40;;;1.90;;
4636;SDS011;2331;48.806;9.140;2023-07-31T00:58:01;2.70;;;1.42;;
4636;SDS011;2331;48.806;9.140;2023-07-31T01:00:27;3.55;;;1.55;;
4636;SDS011;2331;48.806;9.140;2023-07-31T01:02:54;3.13;;;1.60;;
4636;SDS011;2331;48.806;9.140;2023-07-31T01:05:23;4.07;;;1.50;;
4636;SDS011;2331;48.806;9.140;2023-07-31T01:07:56;3.15;;;1.60;;
4636;SDS011;2331;48.806;9.140;2023-07-31T01:10:30;6.32;;;1.50;;
4636;SDS011;2331;48.806;9.140;2023-07-31T01:13:04;4.40;;;1.80;;
4636;SDS011;2331;48.806;9.140;2023-07-31T01:15:32;2.80;;;1.30;;
4636;SDS011;2331;48.806;9.140;2023-07-31T01:17:58;2.72;;;1.67;;
4636;SDS011;2331;48.806;9.140;2023-07-31T01:20:26;3.85;;;1.58;;
4636;SDS011;2331;48.806;9.140;2023-07-31T01:23:08;4.60;;;1.60;;
4636;SDS011;2331;48.806;9.140;2023-07-31T01:26:02;4.40;;;1.75;;
4636;SDS011;2331;48.806;9.140;2023-07-31T01:28:33;5.82;;;1.45;;
4636;SDS011;2331;48.806;9.140;2023-07-31T01:31:06;5.85;;;1.73;;
4636;SDS011;2331;48.806;9.140;2023-07-31T01:33:35;5.75;;;1.25;;
4636;SDS011;2331;48.806;9.140;2023-07-31T01:36:03;6.88;;;1.50;;
4636;SDS011;2331;48.806;9.140;2023-07-31T01:38:30;5.15;;;1.45;;
4636;SDS011;2331;48.806;9.140;2023-07-31T01:40:57;2.63;;;1.40;;
4636;SDS011;2331;48.806;9.140;2023-07-31T01:43:25;7.57;;;1.65;;
4636;SDS011;2331;48.806;9.140;2023-07-31T01:45:52;4.00;;;1.52;;
4636;SDS011;2331;48.806;9.140;2023-07-31T01:48:19;2.85;;;1.38;;
4636;SDS011;2331;48.806;9.140;2023-07-31T01:50:46;8.50;;;1.85;;
4636;SDS011;2331;48.806;9.140;2023-07-31T01:53:12;3.53;;;1.73;;
4636;SDS011;2331;48.806;9.140;2023-07-31T01:55:39;16.27;;;2.00;;
4636;SDS011;2331;48.806;9.140;2023-07-31T01:58:06;3.45;;;1.70;;
4636;SDS011;2331;48.806;9.140;2023-07-31T02:00:34;6.13;;;2.00;;
4636;SDS011;2331;48.806;9.140;2023-07-31T02:03:01;5.35;;;1.67;;
4636;SDS011;2331;48.806;9.140;2023-07-31T02:05:27;3.05;;;1.40;;
4636;SDS011;2331;48.806;9.140;2023-07-31T02:07:54;5.45;;;1.75;;
4636;SDS011;2331;48.806;9.140;2023-07-31T02:10:21;3.72;;;1.60;;
4636;SDS011;2331;48.806;9.140;2023-07-31T02:12:47;5.18;;;1.80;;
4636;SDS011;2331;48.806;9.140;2023-07-31T02:15:14;3.63;;;1.85;;
4636;SDS011;2331;48.806;9.140;2023-07-31T02:17:42;2.60;;;1.60;;
4636;SDS011;2331;48.806;9.140;2023-07-31T02:20:09;2.83;;;1.63;;
4636;SDS011;2331;48.806;9.140;2023-07-31T02:22:36;5.22;;;1.70;;
4636;SDS011;2331;48.806;9.140;2023-07-31T02:25:03;3.83;;;1.52;;
4636;SDS011;2331;48.806;9.140;2023-07-31T02:27:30;3.35;;;1.73;;
4636;SDS011;2331;48.806;9.140;2023-07-31T02:29:57;3.60;;;1.60;;
4636;SDS011;2331;48.806;9.140;2023-07-31T02:32:25;3.63;;;1.77;;
4636;SDS011;2331;48.806;9.140;2023-07-31T02:34:53;4.05;;;1.80;;
4636;SDS011;2331;48.806;9.140;2023-07-31T02:37:19;7.88;;;2.00;;
4636;SDS011;2331;48.806;9.140;2023-07-31T02:39:46;3.58;;;1.40;;
4636;SDS011;2331;48.806;9.140;2023-07-31T02:42:13;5.55;;;1.70;;
4636;SDS011;2331;48.806;9.140;2023-07-31T02:44:40;5.20;;;1.88;;
4636;SDS011;2331;48.806;9.140;2023-07-31T02:47:07;3.03;;;1.60;;
4636;SDS011;2331;48.806;9.140;2023-07-31T02:49:33;4.35;;;2.08;;
4636;SDS011;2331;48.806;9.140;2023-07-31T02:52:01;5.55;;;1.88;;
4636;SDS011;2331;48.806;9.140;2023-07-31T02:54:28;4.30;;;1.65;;
4636;SDS011;2331;48.806;9.140;2023-07-31T02:56:55;6.10;;;1.77;;
4636;SDS011;2331;48.806;9.140;2023-07-31T02:59:22;5.75;;;2.58;;
4636;SDS011;2331;48.806;9.140;2023-07-31T03:01:50;5.68;;;2.10;;
4636;SDS011;2331;48.806;9.140;2023-07-31T03:04:16;3.70;;;1.80;;
4636;SDS011;2331;48.806;9.140;2023-07-31T03:06:43;4.38;;;2.00;;
4636;SDS011;2331;48.806;9.140;2023-07-31T03:09:11;3.42;;;1.65;;
4636;SDS011;2331;48.806;9.140;2023-07-31T03:11:38;3.75;;;1.85;;
4636;SDS011;2331;48.806;9.140;2023-07-31T03:14:04;4.05;;;1.60;;
4636;SDS011;2331;48.806;9.140;2023-07-31T03:16:31;2.72;;;1.67;;
4636;SDS011;2331;48.806;9.140;2023-07-31T03:18:58;4.15;;;1.60;;
4636;SDS011;2331;48.806;9.140;2023-07-31T03:21:25;5.88;;;1.48;;
4636;SDS011;2331;48.806;9.140;2023-07-31T03:23:51;4.60;;;1.90;;
4636;SDS011;2331;48.806;9.140;2023-07-31T03:26:19;3.55;;;1.60;;
4636;SDS011;2331;48.806;9.140;2023-07-31T03:28:46;4.78;;;1.95;;
4636;SDS011;2331;48.806;9.140;2023-07-31T03:31:14;5.88;;;1.90;;
4636;SDS011;2331;48.806;9.140;2023-07-31T03:33:41;6.18;;;2.10;;
4636;SDS011;2331;48.806;9.140;2023-07-31T03:36:07;4.55;;;2.00;;
4636;SDS011;2331;48.806;9.140;2023-07-31T03:38:34;5.85;;;1.60;;
4636;SDS011;2331;48.806;9.140;2023-07-31T03:41:01;4.22;;;1.50;;
4636;SDS011;2331;48.806;9.140;2023-07-31T03:43:29;5.05;;;1.77;;
4636;SDS011;2331;48.806;9.140;2023-07-31T03:45:55;5.78;;;1.80;;
4636;SDS011;2331;48.806;9.140;2023-07-31T03:48:22;3.20;;;1.40;;
4636;SDS011;2331;48.806;9.140;2023-07-31T03:50:49;6.38;;;1.80;;
4636;SDS011;2331;48.806;9.140;2023-07-31T03:53:15;4.55;;;1.50;;
4636;SDS011;2331;48.806;9.140;2023-07-31T03:55:42;4.93;;;1.90;;
4636;SDS011;2331;48.806;9.140;2023-07-31T03:58:09;3.72;;;1.60;;
4636;SDS011;2331;48.806;9.140;2023-07-31T04:00:37;3.88;;;1.80;;
4636;SDS011;2331;48.806;9.140;2023-07-31T04:03:04;6.75;;;2.05;;
4636;SDS011;2331;48.806;9.140;2023-07-31T04:05:31;2.90;;;1.48;;
4636;SDS011;2331;48.806;9.140;2023-07-31T04:07:58;4.35;;;1.70;;
4636;SDS011;2331;48.806;9.140;2023-07-31T04:10:25;4.70;;;2.08;;
4636;SDS011;2331;48.806;9.140;2023-07-31T04:12:51;4.45;;;1.95;;
4636;SDS011;2331;48.806;9.140;2023-07-31T04:15:18;7.65;;;2.00;;
4636;SDS011;2331;48.806;9.140;2023-07-31T04:17:46;4.45;;;1.90;;
4636;SDS011;2331;48.806;9.140;2023-07-31T04:20:13;3.15;;;2.10;;
4636;SDS011;2331;48.806;9.140;2023-07-31T04:22:40;4.15;;;1.45;;
4636;SDS011;2331;48.806;9.140;2023-07-31T04:25:06;3.85;;;1.63;;
4636;SDS011;2331;48.806;9.140;2023-07-31T04:27:33;3.85;;;1.80;;
4636;SDS011;2331;48.806;9.140;2023-07-31T04:30:00;4.90;;;1.85;;
4636;SDS011;2331;48.806;9.140;2023-07-31T04:32:27;4.55;;;2.00;;
4636;SDS011;2331;48.806;9.140;2023-07-31T04:34:56;7.70;;;2.35;;
4636;SDS011;2331;48.806;9.140;2023-07-31T04:37:22;3.80;;;1.80;;
4636;SDS011;2331;48.806;9.140;2023-07-31T04:39:49;5.05;;;1.75;;
4636;SDS011;2331;48.806;9.140;2023-07-31T04:42:16;3.47;;;1.50;;
4636;SDS011;2331;48.806;9.140;2023-07-31T04:44:42;3.78;;;1.63;;
4636;SDS011;2331;48.806;9.140;2023-07-31T04:47:09;5.18;;;1.80;;
4636;SDS011;2331;48.806;9.140;2023-07-31T04:49:36;6.43;;;1.70;;
4636;SDS011;2331;48.806;9.140;2023-07-31T04:52:04;4.97;;;2.13;;
4636;SDS011;2331;48.806;9.140;2023-07-31T04:54:31;4.35;;;1.50;;
4636;SDS011;2331;48.806;9.140;2023-07-31T04:56:58;3.88;;;1.50;;
4636;SDS011;2331;48.806;9.140;2023-07-31T04:59:25;4.90;;;1.90;;
4636;SDS011;2331;48.806;9.140;2023-07-31T05:01:51;3.13;;;1.67;;
4636;SDS011;2331;48.806;9.140;2023-07-31T05:04:18;4.72;;;1.80;;
4636;SDS011;2331;48.806;9.140;2023-07-31T05:06:45;3.05;;;1.60;;
4636;SDS011;2331;48.806;9.140;2023-07-31T05:09:13;3.67;;;1.60;;
4636;SDS011;2331;48.806;9.140;2023-07-31T05:11:39;8.52;;;2.08;;
4636;SDS011;2331;48.806;9.140;2023-07-31T05:14:07;3.33;;;1.60;;
4636;SDS011;2331;48.806;9.140;2023-07-31T05:16:34;5.78;;;2.08;;
4636;SDS011;2331;48.806;9.140;2023-07-31T05:19:01;4.10;;;2.00;;
4636;SDS011;2331;48.806;9.140;2023-07-31T05:21:27;3.35;;;1.60;;
4636;SDS011;2331;48.806;9.140;2023-07-31T05:23:54;5.88;;;1.90;;
4636;SDS011;2331;48.806;9.140;2023-07-31T05:26:22;3.03;;;1.60;;
4636;SDS011;2331;48.806;9.140;2023-07-31T05:28:49;5.03;;;2.80;;
4636;SDS011;2331;48.806;9.140;2023-07-31T05:31:16;2.53;;;1.65;;
4636;SDS011;2331;48.806;9.140;2023-07-31T05:33:42;5.85;;;2.00;;
4636;SDS011;2331;48.806;9.140;2023-07-31T05:36:09;5.50;;;1.98;;
4636;SDS011;2331;48.806;9.140;2023-07-31T05:38:36;4.10;;;2.00;;
4636;SDS011;2331;48.806;9.140;2023-07-31T05:41:03;6.05;;;2.58;;
4636;SDS011;2331;48.806;9.140;2023-07-31T05:43:31;5.03;;;1.88;;
4636;SDS011;2331;48.806;9.140;2023-07-31T05:45:58;3.70;;;1.60;;
4636;SDS011;2331;48.806;9.140;2023-07-31T05:48:26;5.70;;;1.55;;
4636;SDS011;2331;48.806;9.140;2023-07-31T05:50:53;2.72;;;1.50;;
4636;SDS011;2331;48.806;9.140;2023-07-31T05:53:19;2.45;;;1.60;;
4636;SDS011;2331;48.806;9.140;2023-07-31T05:55:46;4.40;;;1.90;;
4636;SDS011;2331;48.806;9.140;2023-07-31T05:58:13;6.10;;;2.90;;
4636;SDS011;2331;48.806;9.140;2023-07-31T06:00:41;3.88;;;1.75;;
4636;SDS011;2331;48.806;9.140;2023-07-31T06:03:07;3.22;;;1.48;;
4636;SDS011;2331;48.806;9.140;2023-07-31T06:05:34;7.65;;;1.80;;
4636;SDS011;2331;48.806;9.140;2023-07-31T06:08:01;5.25;;;1.58;;
4636;SDS011;2331;48.806;9.140;2023-07-31T06:10:28;4.60;;;2.30;;
4636;SDS011;2331;48.806;9.140;2023-07-31T06:12:54;3.05;;;1.85;;
4636;SDS011;2331;48.806;9.140;2023-07-31T06:15:22;3.75;;;2.00;;
4636;SDS011;2331;48.806;9.140;2023-07-31T06:17:50;5.82;;;2.00;;
4636;SDS011;2331;48.806;9.140;2023-07-31T06:20:17;5.47;;;1.80;;
4636;SDS011;2331;48.806;9.140;2023-07-31T06:22:43;3.90;;;1.90;;
4636;SDS011;2331;48.806;9.140;2023-07-31T06:25:11;5.60;;;2.10;;
4636;SDS011;2331;48.806;9.140;2023-07-31T06:27:38;5.03;;;2.05;;
4636;SDS011;2331;48.806;9.140;2023-07-31T06:30:05;3.55;;;1.67;;
4636;SDS011;2331;48.806;9.140;2023-07-31T06:32:32;5.22;;;2.13;;
4636;SDS011;2331;48.806;9.140;2023-07-31T06:35:00;5.25;;;2.20;;
4636;SDS011;2331;48.806;9.140;2023-07-31T06:37:27;2.67;;;1.60;;
4636;SDS011;2331;48.806;9.140;2023-07-31T06:39:54;5.55;;;2.00;;
4636;SDS011;2331;48.806;9.140;2023-07-31T06:42:25;3.50;;;2.05;;
4636;SDS011;2331;48.806;9.140;2023-07-31T06:45:03;4.07;;;1.95;;
4636;SDS011;2331;48.806;9.140;2023-07-31T06:47:44;5.97;;;2.23;;
4636;SDS011;2331;48.806;9.140;2023-07-31T06:50:13;6.50;;;2.17;;
4636;SDS011;2331;48.806;9.140;2023-07-31T06:52:40;3.73;;;2.13;;
4636;SDS011;2331;48.806;9.140;2023-07-31T06:55:15;5.17;;;1.83;;
4636;SDS011;2331;48.806;9.140;2023-07-31T06:57:43;4.47;;;1.97;;
4636;SDS011;2331;48.806;9.140;2023-07-31T07:00:10;5.57;;;2.20;;
4636;SDS011;2331;48.806;9.140;2023-07-31T07:02:38;5.17;;;2.00;;
4636;SDS011;2331;48.806;9.140;2023-07-31T07:05:05;3.30;;;1.80;;
4636;SDS011;2331;48.806;9.140;2023-07-31T07:07:34;3.20;;;1.80;;
4636;SDS011;2331;48.806;9.140;2023-07-31T07:10:02;4.90;;;1.90;;
4636;SDS011;2331;48.806;9.140;2023-07-31T07:12:30;4.30;;;2.20;;
4636;SDS011;2331;48.806;9.140;2023-07-31T07:14:58;3.80;;;2.00;;
4636;SDS011;2331;48.806;9.140;2023-07-31T07:17:25;3.33;;;1.90;;
4636;SDS011;2331;48.806;9.140;2023-07-31T07:19:52;6.10;;;2.10;;
4636;SDS011;2331;48.806;9.140;2023-07-31T07:22:20;4.57;;;2.20;;
4636;SDS011;2331;48.806;9.140;2023-07-31T07:24:48;4.80;;;2.50;;
4636;SDS011;2331;48.806;9.140;2023-07-31T07:27:15;4.23;;;2.20;;
4636;SDS011;2331;48.806;9.140;2023-07-31T07:29:41;4.10;;;2.30;;
4636;SDS011;2331;48.806;9.140;2023-07-31T07:32:08;5.13;;;2.20;;
4636;SDS011;2331;48.806;9.140;2023-07-31T07:34:36;9.73;;;2.27;;
4636;SDS011;2331;48.806;9.140;2023-07-31T07:37:04;5.37;;;2.20;;
4636;SDS011;2331;48.806;9.140;2023-07-31T07:39:31;4.23;;;2.00;;
4636;SDS011;2331;48.806;9.140;2023-07-31T07:41:59;5.33;;;2.33;;
4636;SDS011;2331;48.806;9.140;2023-07-31T07:44:26;7.63;;;2.33;;
4636;SDS011;2331;48.806;9.140;2023-07-31T07:46:52;5.03;;;2.93;;
4636;SDS011;2331;48.806;9.140;2023-07-31T07:49:19;4.90;;;1.90;;
4636;SDS011;2331;48.806;9.140;2023-07-31T07:51:47;3.30;;;1.90;;
4636;SDS011;2331;48.806;9.140;2023-07-31T07:54:14;5.57;;;2.07;;
4636;SDS011;2331;48.806;9.140;2023-07-31T07:56:41;3.63;;;1.70;;
4636;SDS011;2331;48.806;9.140;2023-07-31T07:59:10;4.77;;;2.30;;
4636;SDS011;2331;48.806;9.140;2023-07-31T08:01:52;4.40;;;2.30;;
4636;SDS011;2331;48.806;9.140;2023-07-31T08:04:18;5.80;;;2.10;;
4636;SDS011;2331;48.806;9.140;2023-07-31T08:06:45;5.50;;;2.20;;
4636;SDS011;2331;48.806;9.140;2023-07-31T08:09:12;8.03;;;2.40;;
4636;SDS011;2331;48.806;9.140;2023-07-31T08:11:39;6.43;;;2.67;;
4636;SDS011;2331;48.806;9.140;2023-07-31T08:14:06;4.30;;;2.10;;
4636;SDS011;2331;48.806;9.140;2023-07-31T08:16:34;9.80;;;3.23;;
4636;SDS011;2331;48.806;9.140;2023-07-31T08:19:00;7.77;;;2.33;;
4636;SDS011;2331;48.806;9.140;2023-07-31T08:21:27;4.33;;;2.13;;
4636;SDS011;2331;48.806;9.140;2023-07-31T08:23:54;5.13;;;2.13;;
4636;SDS011;2331;48.806;9.140;2023-07-31T08:26:21;5.00;;;2.23;;
4636;SDS011;2331;48.806;9.140;2023-07-31T08:28:48;7.17;;;2.60;;
4636;SDS011;2331;48.806;9.140;2023-07-31T08:31:15;5.00;;;2.20;;
4636;SDS011;2331;48.806;9.140;2023-07-31T08:33:43;8.33;;;2.90;;
4636;SDS011;2331;48.806;9.140;2023-07-31T08:36:09;7.70;;;2.47;;
4636;SDS011;2331;48.806;9.140;2023-07-31T08:38:36;5.27;;;1.90;;
4636;SDS011;2331;48.806;9.140;2023-07-31T08:41:03;5.87;;;2.70;;
4636;SDS011;2331;48.806;9.140;2023-07-31T08:43:30;5.27;;;1.80;;
4636;SDS011;2331;48.806;9.140;2023-07-31T08:45:58;3.97;;;2.20;;
4636;SDS011;2331;48.806;9.140;2023-07-31T08:48:25;9.17;;;3.60;;
4636;SDS011;2331;48.806;9.140;2023-07-31T08:50:55;7.87;;;3.00;;
4636;SDS011;2331;48.806;9.140;2023-07-31T08:53:22;5.10;;;2.50;;
4636;SDS011;2331;48.806;9.140;2023-07-31T08:55:49;7.60;;;2.70;;
4636;SDS011;2331;48.806;9.140;2023-07-31T08:58:18;7.97;;;2.90;;
4636;SDS011;2331;48.806;9.140;2023-07-31T09:00:46;5.17;;;2.60;;
4636;SDS011;2331;48.806;9.140;2023-07-31T09:03:13;4.80;;;2.17;;
4636;SDS011;2331;48.806;9.140;2023-07-31T09:05:42;5.17;;;1.93;;
4636;SDS011;2331;48.806;9.140;2023-07-31T09:08:11;9.80;;;2.50;;
4636;SDS011;2331;48.806;9.140;2023-07-31T09:10:42;6.80;;;2.43;;
4636;SDS011;2331;48.806;9.140;2023-07-31T09:13:11;4.97;;;2.53;;
4636;SDS011;2331;48.806;9.140;2023-07-31T09:15:37;7.07;;;2.50;;
4636;SDS011;2331;48.806;9.140;2023-07-31T09:18:06;6.43;;;2.30;;
4636;SDS011;2331;48.806;9.140;2023-07-31T09:20:33;7.73;;;2.30;;
4636;SDS011;2331;48.806;9.140;2023-07-31T09:23:07;6.47;;;2.43;;
4636;SDS011;2331;48.806;9.140;2023-07-31T09:25:37;5.60;;;2.10;;
4636;SDS011;2331;48.806;9.140;2023-07-31T09:28:04;6.33;;;2.10;;
4636;SDS011;2331;48.806;9.140;2023-07-31T09:30:43;6.80;;;2.60;;
4636;SDS011;2331;48.806;9.140;2023-07-31T09:33:11;6.50;;;2.90;;
4636;SDS011;2331;48.806;9.140;2023-07-31T09:35:38;5.40;;;2.27;;
4636;SDS011;2331;48.806;9.140;2023-07-31T09:38:06;6.57;;;2.50;;
4636;SDS011;2331;48.806;9.140;2023-07-31T09:40:37;5.10;;;2.10;;
4636;SDS011;2331;48.806;9.140;2023-07-31T09:43:05;5.37;;;2.43;;
4636;SDS011;2331;48.806;9.140;2023-07-31T09:45:33;7.00;;;2.53;;
4636;SDS011;2331;48.806;9.140;2023-07-31T09:48:01;6.00;;;2.63;;
4636;SDS011;2331;48.806;9.140;2023-07-31T09:50:29;5.83;;;2.30;;
4636;SDS011;2331;48.806;9.140;2023-07-31T09:52:55;6.40;;;2.63;;
4636;SDS011;2331;48.806;9.140;2023-07-31T09:55:23;5.23;;;2.17;;
4636;SDS011;2331;48.806;9.140;2023-07-31T09:57:51;5.50;;;2.63;;
4636;SDS011;2331;48.806;9.140;2023-07-31T10:00:21;5.47;;;2.40;;
4636;SDS011;2331;48.806;9.140;2023-07-31T10:02:50;6.43;;;2.57;;
4636;SDS011;2331;48.806;9.140;2023-07-31T10:05:17;6.57;;;2.40;;
4636;SDS011;2331;48.806;9.140;2023-07-31T10:07:48;6.37;;;2.90;;
4636;SDS011;2331;48.806;9.140;2023-07-31T10:10:17;8.23;;;2.90;;
4636;SDS011;2331;48.806;9.140;2023-07-31T10:12:46;8.00;;;2.83;;
4636;SDS011;2331;48.806;9.140;2023-07-31T10:15:15;6.67;;;2.97;;
4636;SDS011;2331;48.806;9.140;2023-07-31T10:17:43;5.57;;;2.20;;
4636;SDS011;2331;48.806;9.140;2023-07-31T10:20:11;8.60;;;4.50;;
4636;SDS011;2331;48.806;9.140;2023-07-31T10:22:38;8.13;;;3.63;;
4636;SDS011;2331;48.806;9.140;2023-07-31T10:25:06;10.37;;;3.07;;
4636;SDS011;2331;48.806;9.140;2023-07-31T10:27:35;9.03;;;3.63;;
4636;SDS011;2331;48.806;9.140;2023-07-31T10:30:04;12.30;;;3.63;;
4636;SDS011;2331;48.806;9.140;2023-07-31T10:32:35;10.40;;;3.33;;
4636;SDS011;2331;48.806;9.140;2023-07-31T10:35:03;6.80;;;2.70;;
4636;SDS011;2331;48.806;9.140;2023-07-31T10:37:35;5.47;;;2.73;;
4636;SDS011;2331;48.806;9.140;2023-07-31T10:40:04;6.07;;;2.63;;
4636;SDS011;2331;48.806;9.140;2023-07-31T10:42:33;6.37;;;2.20;;
4636;SDS011;2331;48.806;9.140;2023-07-31T10:45:02;6.60;;;2.50;;
4636;SDS011;2331;48.806;9.140;2023-07-31T10:47:30;7.53;;;2.30;;
4636;SDS011;2331;48.806;9.140;2023-07-31T10:50:15;6.00;;;2.73;;
4636;SDS011;2331;48.806;9.140;2023-07-31T10:52:46;6.47;;;3.13;;
4636;SDS011;2331;48.806;9.140;2023-07-31T10:55:15;10.00;;;3.30;;
4636;SDS011;2331;48.806;9.140;2023-07-31T10:57:48;5.83;;;2.50;;
4636;SDS011;2331;48.806;9.140;2023-07-31T11:00:18;6.13;;;3.00;;
4636;SDS011;2331;48.806;9.140;2023-07-31T11:02:56;6.10;;;2.60;;
4636;SDS011;2331;48.806;9.140;2023-07-31T11:08:11;5.87;;;2.40;;
4636;SDS011;2331;48.806;9.140;2023-07-31T11:10:39;6.73;;;2.73;;
4636;SDS011;2331;48.806;9.140;2023-07-31T11:13:05;5.60;;;2.20;;
4636;SDS011;2331;48.806;9.140;2023-07-31T11:15:32;8.10;;;2.60;;
4636;SDS011;2331;48.806;9.140;2023-07-31T11:17:59;6.37;;;2.77;;
4636;SDS011;2331;48.806;9.140;2023-07-31T11:20:29;12.33;;;3.10;;
4636;SDS011;2331;48.806;9.140;2023-07-31T11:22:59;6.93;;;2.30;;
4636;SDS011;2331;48.806;9.140;2023-07-31T11:25:26;6.23;;;2.73;;
4636;SDS011;2331;48.806;9.140;2023-07-31T11:27:55;5.83;;;2.50;;
4636;SDS011;2331;48.806;9.140;2023-07-31T11:30:22;6.73;;;2.30;;
4636;SDS011;2331;48.806;9.140;2023-07-31T11:32:48;6.57;;;2.50;;
4636;SDS011;2331;48.806;9.140;2023-07-31T11:35:16;8.33;;;3.00;;
4636;SDS011;2331;48.806;9.140;2023-07-31T11:37:43;5.30;;;2.70;;
4636;SDS011;2331;48.806;9.140;2023-07-31T11:40:12;7.50;;;2.73;;
4636;SDS011;2331;48.806;9.140;2023-07-31T11:42:38;7.27;;;2.40;;
4636;SDS011;2331;48.806;9.140;2023-07-31T11:45:05;5.80;;;2.47;;
4636;SDS011;2331;48.806;9.140;2023-07-31T11:47:34;4.90;;;2.40;;
4636;SDS011;2331;48.806;9.140;2023-07-31T11:50:01;7.50;;;2.90;;
4636;SDS011;2331;48.806;9.140;2023-07-31T11:52:29;5.40;;;2.43;;
4636;SDS011;2331;48.806;9.140;2023-07-31T11:54:58;5.33;;;2.30;;
4636;SDS011;2331;48.806;9.140;2023-07-31T11:57:27;3.27;;;1.97;;
4636;SDS011;2331;48.806;9.140;2023-07-31T11:59:54;7.07;;;2.20;;
4636;SDS011;2331;48.806;9.140;2023-07-31T12:02:23;8.83;;;2.40;;
4636;SDS011;2331;48.806;9.140;2023-07-31T12:04:50;5.67;;;2.57;;
4636;SDS011;2331;48.806;9.140;2023-07-31T12:07:17;7.17;;;2.57;;
4636;SDS011;2331;48.806;9.140;2023-07-31T12:09:53;5.80;;;3.07;;
4636;SDS011;2331;48.806;9.140;2023-07-31T12:12:20;9.97;;;3.30;;
4636;SDS011;2331;48.806;9.140;2023-07-31T12:14:49;6.03;;;2.63;;
4636;SDS011;2331;48.806;9.140;2023-07-31T12:17:16;6.10;;;2.57;;
4636;SDS011;2331;48.806;9.140;2023-07-31T12:19:45;11.63;;;2.70;;
4636;SDS011;2331;48.806;9.140;2023-07-31T12:22:11;7.17;;;2.70;;
4636;SDS011;2331;48.806;9.140;2023-07-31T12:24:39;9.00;;;2.40;;
4636;SDS011;2331;48.806;9.140;2023-07-31T12:27:09;9.27;;;2.40;;
4636;SDS011;2331;48.806;9.140;2023-07-31T12:29:37;4.77;;;2.40;;
4636;SDS011;2331;48.806;9.140;2023-07-31T12:32:06;6.47;;;2.40;;
4636;SDS011;2331;48.806;9.140;2023-07-31T12:34:45;6.73;;;2.87;;
4636;SDS011;2331;48.806;9.140;2023-07-31T12:37:12;5.43;;;2.80;;
4636;SDS011;2331;48.806;9.140;2023-07-31T12:39:38;5.80;;;2.60;;
4636;SDS011;2331;48.806;9.140;2023-07-31T12:42:05;6.27;;;2.50;;
4636;SDS011;2331;48.806;9.140;2023-07-31T12:44:32;5.20;;;2.50;;
4636;SDS011;2331;48.806;9.140;2023-07-31T12:46:59;7.53;;;2.90;;
4636;SDS011;2331;48.806;9.140;2023-07-31T12:49:27;5.83;;;2.73;;
4636;SDS011;2331;48.806;9.140;2023-07-31T12:51:54;6.10;;;2.67;;
4636;SDS011;2331;48.806;9.140;2023-07-31T12:54:20;6.57;;;3.17;;
4636;SDS011;2331;48.806;9.140;2023-07-31T12:56:47;9.70;;;3.40;;
4636;SDS011;2331;48.806;9.140;2023-07-31T12:59:14;5.83;;;2.87;;
4636;SDS011;2331;48.806;9.140;2023-07-31T13:01:40;7.33;;;2.60;;
4636;SDS011;2331;48.806;9.140;2023-07-31T13:04:07;4.27;;;2.40;;
4636;SDS011;2331;48.806;9.140;2023-07-31T13:06:35;5.73;;;3.10;;
4636;SDS011;2331;48.806;9.140;2023-07-31T13:09:02;5.93;;;2.30;;
4636;SDS011;2331;48.806;9.140;2023-07-31T13:11:29;6.40;;;3.10;;
4636;SDS011;2331;48.806;9.140;2023-07-31T13:13:56;5.80;;;2.40;;
4636;SDS011;2331;48.806;9.140;2023-07-31T13:16:23;5.73;;;2.67;;
4636;SDS011;2331;48.806;9.140;2023-07-31T13:18:49;11.00;;;2.80;;
4636;SDS011;2331;48.806;9.140;2023-07-31T13:21:18;8.10;;;3.67;;
4636;SDS011;2331;48.806;9.140;2023-07-31T13:23:48;5.93;;;3.10;;
4636;SDS011;2331;48.806;9.140;2023-07-31T13:26:15;5.40;;;2.30;;
4636;SDS011;2331;48.806;9.140;2023-07-31T13:28:42;5.20;;;2.57;;
4636;SDS011;2331;48.806;9.140;2023-07-31T13:31:09;4.30;;;2.63;;
4636;SDS011;2331;48.806;9.140;2023-07-31T13:33:36;6.73;;;2.90;;
4636;SDS011;2331;48.806;9.140;2023-07-31T13:36:03;6.23;;;2.83;;
4636;SDS011;2331;48.806;9.140;2023-07-31T13:38:33;6.40;;;2.50;;
4636;SDS011;2331;48.806;9.140;2023-07-31T13:41:04;6.00;;;2.60;;
4636;SDS011;2331;48.806;9.140;2023-07-31T13:43:36;5.80;;;2.50;;
4636;SDS011;2331;48.806;9.140;2023-07-31T13:46:03;5.70;;;2.60;;
4636;SDS011;2331;48.806;9.140;2023-07-31T13:48:31;6.50;;;2.57;;
4636;SDS011;2331;48.806;9.140;2023-07-31T13:51:03;6.90;;;2.37;;
4636;SDS011;2331;48.806;9.140;2023-07-31T13:53:30;5.93;;;2.80;;
4636;SDS011;2331;48.806;9.140;2023-07-31T13:55:57;4.60;;;2.27;;
4636;SDS011;2331;48.806;9.140;2023-07-31T13:58:25;4.73;;;2.50;;
4636;SDS011;2331;48.806;9.140;2023-07-31T14:00:52;4.60;;;2.50;;
4636;SDS011;2331;48.806;9.140;2023-07-31T14:03:18;5.93;;;2.30;;
4636;SDS011;2331;48.806;9.140;2023-07-31T14:05:45;5.07;;;2.90;;
4636;SDS011;2331;48.806;9.140;2023-07-31T14:08:15;7.50;;;2.73;;
4636;SDS011;2331;48.806;9.140;2023-07-31T14:10:42;4.93;;;2.50;;
4636;SDS011;2331;48.806;9.140;2023-07-31T14:13:08;5.47;;;2.43;;
4636;SDS011;2331;48.806;9.140;2023-07-31T14:15:36;5.20;;;2.30;;
4636;SDS011;2331;48.806;9.140;2023-07-31T14:18:03;4.60;;;2.30;;
4636;SDS011;2331;48.806;9.140;2023-07-31T14:20:32;10.13;;;3.03;;
4636;SDS011;2331;48.806;9.140;2023-07-31T14:22:59;7.93;;;2.80;;
4636;SDS011;2331;48.806;9.140;2023-07-31T14:25:26;6.70;;;2.40;;
4636;SDS011;2331;48.806;9.140;2023-07-31T14:27:52;6.80;;;2.30;;
4636;SDS011;2331;48.806;9.140;2023-07-31T14:30:20;5.00;;;2.40;;
4636;SDS011;2331;48.806;9.140;2023-07-31T14:32:48;4.90;;;2.63;;
4636;SDS011;2331;48.806;9.140;2023-07-31T14:35:16;4.70;;;2.73;;
4636;SDS011;2331;48.806;9.140;2023-07-31T14:37:43;5.10;;;2.70;;
4636;SDS011;2331;48.806;9.140;2023-07-31T14:40:11;7.63;;;2.67;;
4636;SDS011;2331;48.806;9.140;2023-07-31T14:42:39;4.10;;;2.13;;
4636;SDS011;2331;48.806;9.140;2023-07-31T14:45:06;4.80;;;2.20;;
4636;SDS011;2331;48.806;9.140;2023-07-31T14:47:35;4.90;;;2.27;;
4636;SDS011;2331;48.806;9.140;2023-07-31T14:50:03;6.27;;;2.50;;
4636;SDS011;2331;48.806;9.140;2023-07-31T14:52:35;4.37;;;2.23;;
4636;SDS011;2331;48.806;9.140;2023-07-31T14:55:02;7.43;;;2.60;;
4636;SDS011;2331;48.806;9.140;2023-07-31T14:57:29;5.83;;;2.97;;
4636;SDS011;2331;48.806;9.140;2023-07-31T14:59:56;8.03;;;3.00;;
4636;SDS011;2331;48.806;9.140;2023-07-31T15:02:23;4.10;;;2.27;;
4636;SDS011;2331;48.806;9.140;2023-07-31T15:04:51;5.40;;;2.50;;
4636;SDS011;2331;48.806;9.140;2023-07-31T15:07:21;4.83;;;2.20;;
4636;SDS011;2331;48.806;9.140;2023-07-31T15:09:48;6.13;;;2.37;;
4636;SDS011;2331;48.806;9.140;2023-07-31T15:12:21;6.90;;;3.30;;
4636;SDS011;2331;48.806;9.140;2023-07-31T15:14:52;3.53;;;2.00;;
4636;SDS011;2331;48.806;9.140;2023-07-31T15:17:20;7.20;;;2.67;;
4636;SDS011;2331;48.806;9.140;2023-07-31T15:19:53;4.40;;;2.53;;
4636;SDS011;2331;48.806;9.140;2023-07-31T15:22:27;6.13;;;2.60;;